createdAt,value
2022-12-03T00:00:24.865Z,101529.63
2022-12-03T00:02:51.435Z,101528.69
2022-12-03T00:05:17.943Z,101531.25
2022-12-03T00:07:44.703Z,101526.75
2022-12-03T00:10:11.417Z,101527.00
2022-12-03T00:12:38.059Z,101528.69
2022-12-03T00:15:05.783Z,101524.78
2022-12-03T00:17:32.303Z,101525.63
2022-12-03T00:19:58.760Z,101523.34
2022-12-03T00:22:25.212Z,101523.81
2022-12-03T00:24:52.160Z,101524.44
2022-12-03T00:27:18.795Z,101519.91
2022-12-03T00:29:46.567Z,101518.34
2022-12-03T00:32:13.940Z,101514.56
2022-12-03T00:34:40.350Z,101511.06
2022-12-03T00:37:07.772Z,101513.00
2022-12-03T00:39:34.809Z,101508.75
2022-12-03T00:42:01.247Z,101511.19
2022-12-03T00:44:27.949Z,101504.75
2022-12-03T00:46:54.803Z,101502.47
2022-12-03T00:49:21.814Z,101498.81
2022-12-03T00:51:48.729Z,101502.94
2022-12-03T00:54:17.668Z,101509.72
2022-12-03T00:56:44.152Z,101506.59
2022-12-03T00:59:10.750Z,101502.69
2022-12-03T01:01:37.758Z,101497.00
2022-12-03T01:04:04.371Z,101502.94
2022-12-03T01:06:30.813Z,101502.81
2022-12-03T01:08:58.372Z,101497.94
2022-12-03T01:11:41.185Z,101501.72
2022-12-03T01:14:19.445Z,101501.13
2022-12-03T01:16:46.392Z,101511.56
2022-12-03T01:19:16.420Z,101503.31
2022-12-03T01:21:43.496Z,101505.84
2022-12-03T01:24:10.284Z,101509.97
2022-12-03T01:26:36.869Z,101503.19
2022-12-03T01:29:03.978Z,101514.97
2022-12-03T01:31:49.289Z,101512.88
2022-12-03T01:34:15.726Z,101512.28
2022-12-03T01:36:42.068Z,101514.84
2022-12-03T01:39:08.668Z,101514.09
2022-12-03T01:41:35.607Z,101515.22
2022-12-03T01:44:02.432Z,101512.66
2022-12-03T01:46:35.079Z,101502.66
2022-12-03T01:49:01.640Z,101513.13
2022-12-03T01:51:29.295Z,101512.16
2022-12-03T01:53:55.799Z,101509.25
2022-12-03T01:56:22.372Z,101512.66
2022-12-03T01:58:48.775Z,101513.38
2022-12-03T02:01:16.650Z,101510.31
2022-12-03T02:03:43.656Z,101513.00
2022-12-03T02:06:18.069Z,101512.88
2022-12-03T02:08:45.177Z,101516.19
2022-12-03T02:11:17.735Z,101514.59
2022-12-03T02:13:44.344Z,101510.56
2022-12-03T02:16:10.991Z,101506.22
2022-12-03T02:18:37.517Z,101504.03
2022-12-03T02:21:19.033Z,101502.31
2022-12-03T02:23:51.837Z,101499.16
2022-12-03T02:26:18.343Z,101503.44
2022-12-03T02:28:44.706Z,101503.66
2022-12-03T02:31:11.524Z,101502.44
2022-12-03T02:33:38.244Z,101507.28
2022-12-03T02:36:04.792Z,101507.41
2022-12-03T02:38:32.535Z,101503.63
2022-12-03T02:41:00.590Z,101491.00
2022-12-03T02:43:27.176Z,101495.25
2022-12-03T02:45:54.946Z,101500.97
2022-12-03T02:48:23.403Z,101489.91
2022-12-03T02:50:57.400Z,101494.91
2022-12-03T02:53:26.342Z,101496.84
2022-12-03T02:55:54.383Z,101495.63
2022-12-03T02:58:21.566Z,101494.53
2022-12-03T03:00:49.435Z,101487.13
2022-12-03T03:03:16.556Z,101483.97
2022-12-03T03:05:43.175Z,101483.59
2022-12-03T03:08:10.316Z,101481.41
2022-12-03T03:10:37.702Z,101487.34
2022-12-03T03:13:07.333Z,101483.97
2022-12-03T03:15:35.683Z,101482.84
2022-12-03T03:18:02.074Z,101476.06
2022-12-03T03:20:28.508Z,101476.44
2022-12-03T03:23:04.260Z,101465.59
2022-12-03T03:25:30.629Z,101473.00
2022-12-03T03:27:57.051Z,101479.44
2022-12-03T03:30:23.424Z,101470.22
2022-12-03T03:32:50.013Z,101468.50
2022-12-03T03:35:17.908Z,101475.69
2022-12-03T03:37:44.377Z,101473.84
2022-12-03T03:40:11.113Z,101474.09
2022-12-03T03:42:37.809Z,101477.63
2022-12-03T03:45:06.204Z,101482.22
2022-12-03T03:47:32.657Z,101474.94
2022-12-03T03:49:59.161Z,101477.25
2022-12-03T03:52:25.975Z,101470.84
2022-12-03T03:54:52.670Z,101469.72
2022-12-03T03:57:19.337Z,101468.41
2022-12-03T03:59:46.077Z,101479.09
2022-12-03T04:02:22.571Z,101470.84
2022-12-03T04:04:49.386Z,101468.75
2022-12-03T04:07:16.196Z,101468.03
2022-12-03T04:09:42.528Z,101470.34
2022-12-03T04:12:27.591Z,101464.03
2022-12-03T04:14:54.197Z,101468.88
2022-12-03T04:17:20.709Z,101462.94
2022-12-03T04:19:47.067Z,101465.13
2022-12-03T04:22:32.168Z,101467.28
2022-12-03T04:25:17.370Z,101468.88
2022-12-03T04:28:02.924Z,101464.25
2022-12-03T04:30:29.642Z,101469.34
2022-12-03T04:33:15.065Z,101466.56
2022-12-03T04:35:44.620Z,101464.00
2022-12-03T04:38:11.460Z,101455.88
2022-12-03T04:40:57.236Z,101448.69
2022-12-03T04:43:23.705Z,101454.75
2022-12-03T04:45:50.129Z,101453.53
2022-12-03T04:48:16.908Z,101451.84
2022-12-03T04:50:43.271Z,101451.63
2022-12-03T04:53:09.675Z,101450.88
2022-12-03T04:55:36.087Z,101449.91
2022-12-03T04:58:02.545Z,101444.34
2022-12-03T05:00:28.993Z,101450.53
2022-12-03T05:02:55.408Z,101449.81
2022-12-03T05:05:21.865Z,101451.50
2022-12-03T05:07:48.312Z,101452.34
2022-12-03T05:10:14.776Z,101448.69
2022-12-03T05:12:41.131Z,101446.03
2022-12-03T05:15:07.697Z,101447.00
2022-12-03T05:17:34.043Z,101450.41
2022-12-03T05:20:19.208Z,101445.56
2022-12-03T05:22:45.620Z,101442.88
2022-12-03T05:25:11.932Z,101442.16
2022-12-03T05:27:38.398Z,101442.78
2022-12-03T05:30:05.203Z,101434.50
2022-12-03T05:32:31.544Z,101401.00
2022-12-03T05:34:58.020Z,101435.13
2022-12-03T05:37:24.437Z,101436.72
2022-12-03T05:39:50.862Z,101438.91
2022-12-03T05:42:35.879Z,101441.91
2022-12-03T05:45:02.268Z,101443.84
2022-12-03T05:47:28.666Z,101441.91
2022-12-03T05:49:55.024Z,101436.56
2022-12-03T05:52:21.383Z,101441.91
2022-12-03T05:54:48.353Z,101440.34
2022-12-03T05:57:14.697Z,101437.03
2022-12-03T05:59:41.037Z,101432.47
2022-12-03T06:02:07.454Z,101435.34
2022-12-03T06:04:33.898Z,101428.31
2022-12-03T06:07:00.233Z,101428.19
2022-12-03T06:09:26.624Z,101428.06
2022-12-03T06:11:54.156Z,101428.56
2022-12-03T06:14:20.762Z,101430.13
2022-12-03T06:16:47.224Z,101434.25
2022-12-03T06:19:13.644Z,101426.84
2022-12-03T06:21:39.967Z,101428.81
2022-12-03T06:24:06.385Z,101428.56
2022-12-03T06:26:32.838Z,101430.00
2022-12-03T06:28:59.164Z,101431.69
2022-12-03T06:31:25.628Z,101432.94
2022-12-03T06:33:52.000Z,101426.00
2022-12-03T06:36:22.823Z,101426.50
2022-12-03T06:38:49.537Z,101432.94
2022-12-03T06:41:15.876Z,101427.13
2022-12-03T06:43:42.308Z,101430.03
2022-12-03T06:46:08.847Z,101432.72
2022-12-03T06:48:35.366Z,101429.53
2022-12-03T06:51:01.842Z,101440.97
2022-12-03T06:53:28.438Z,101432.47
2022-12-03T06:55:54.928Z,101433.66
2022-12-03T06:58:21.417Z,101432.56
2022-12-03T07:00:50.806Z,101427.34
2022-12-03T07:03:20.111Z,101433.88
2022-12-03T07:05:50.913Z,101431.81
2022-12-03T07:08:17.752Z,101430.75
2022-12-03T07:10:49.548Z,101429.50
2022-12-03T07:13:16.020Z,101435.22
2022-12-03T07:15:45.523Z,101434.00
2022-12-03T07:18:11.994Z,101442.03
2022-12-03T07:20:38.418Z,101441.91
2022-12-03T07:23:04.860Z,101434.25
2022-12-03T07:25:31.289Z,101432.19
2022-12-03T07:27:57.758Z,101426.09
2022-12-03T07:30:38.624Z,101429.63
2022-12-03T07:33:37.162Z,101426.59
2022-12-03T07:47:40.114Z,101434.72
2022-12-03T07:50:18.070Z,101436.66
2022-12-03T07:52:56.040Z,101431.66
2022-12-03T07:55:28.273Z,101429.25
2022-12-03T07:58:29.129Z,101433.41
2022-12-03T08:00:56.235Z,101426.97
2022-12-03T08:10:58.071Z,101434.63
2022-12-03T08:13:36.995Z,101444.34
2022-12-03T08:16:12.590Z,101438.75
2022-12-03T08:18:59.657Z,101435.56
2022-12-03T11:51:59.023Z,101300.72
2022-12-03T11:54:25.963Z,101302.75
2022-12-03T11:56:53.120Z,101293.59
2022-12-03T11:59:20.071Z,101301.78
2022-12-03T12:01:47.064Z,101297.16
2022-12-03T12:04:27.760Z,101298.91
2022-12-03T12:06:54.252Z,101290.75
2022-12-03T12:09:39.992Z,101288.38
2022-12-03T12:12:25.064Z,101289.50
2022-12-03T12:14:54.544Z,101280.81
2022-12-03T12:17:40.039Z,101283.03
2022-12-03T12:23:25.828Z,101273.00
2022-12-03T12:25:54.467Z,101274.19
2022-12-03T12:28:21.124Z,101273.53
2022-12-03T12:30:47.515Z,101266.97
2022-12-03T12:33:22.947Z,101266.72
2022-12-03T12:35:49.582Z,101267.06
2022-12-03T12:38:26.460Z,101254.97
2022-12-03T12:40:52.883Z,101256.09
2022-12-03T12:43:25.129Z,101241.78
2022-12-03T12:45:55.709Z,101245.16
2022-12-03T12:48:26.758Z,101243.81
2022-12-03T12:51:13.507Z,101246.34
2022-12-03T12:53:42.666Z,101239.28
2022-12-03T12:56:09.075Z,101240.94
2022-12-03T13:02:41.687Z,101248.22
2022-12-03T13:05:12.793Z,101239.50
2022-12-03T13:07:40.337Z,101246.25
2022-12-03T13:10:24.772Z,101240.75
2022-12-03T13:12:51.915Z,101239.31
2022-12-03T13:15:38.660Z,101233.00
2022-12-03T13:18:30.853Z,101230.38
2022-12-03T13:21:22.135Z,101231.53
2022-12-03T13:23:56.173Z,101222.19
2022-12-03T13:30:04.186Z,101216.84
2022-12-03T13:36:01.837Z,101214.06
2022-12-03T13:38:30.943Z,101211.84
2022-12-03T13:41:02.092Z,101214.53
2022-12-03T13:43:30.307Z,101216.41
2022-12-03T13:45:56.957Z,101215.22
2022-12-03T13:48:29.093Z,101211.00
2022-12-03T13:50:55.491Z,101205.22
2022-12-03T13:53:24.830Z,101208.72
2022-12-03T13:56:17.372Z,101201.66
2022-12-03T13:58:43.897Z,101210.44
2022-12-03T14:01:10.384Z,101207.44
2022-12-03T14:03:36.954Z,101208.75
2022-12-03T14:06:03.421Z,101204.81
2022-12-03T14:08:30.980Z,101203.56
2022-12-03T14:11:00.529Z,101193.28
2022-12-03T14:13:27.478Z,101203.69
2022-12-03T14:15:54.235Z,101207.38
2022-12-03T14:18:21.727Z,101199.13
2022-12-03T14:20:48.357Z,101208.16
2022-12-03T14:23:15.289Z,101201.66
2022-12-03T14:25:43.829Z,101204.34
2022-12-03T14:28:10.583Z,101201.13
2022-12-03T14:31:24.240Z,101202.56
2022-12-03T14:33:50.746Z,101200.59
2022-12-03T14:36:17.220Z,101195.94
2022-12-03T14:38:43.737Z,101189.59
2022-12-03T14:41:30.101Z,101195.94
2022-12-03T14:43:56.576Z,101194.13
2022-12-03T14:46:23.056Z,101198.19
2022-12-03T14:48:49.760Z,101192.84
2022-12-03T14:51:16.233Z,101195.66
2022-12-03T14:53:42.605Z,101193.25
2022-12-03T14:56:09.167Z,101196.88
2022-12-03T14:58:35.745Z,101203.09
2022-12-03T15:01:02.273Z,101193.66
2022-12-03T15:03:29.008Z,101198.25
2022-12-03T15:05:55.508Z,101192.09
2022-12-03T15:08:22.118Z,101185.28
2022-12-03T15:10:48.743Z,101190.22
2022-12-03T15:13:16.171Z,101186.13
2022-12-03T15:15:42.724Z,101189.34
2022-12-03T15:18:09.262Z,101184.38
2022-12-03T15:20:35.980Z,101194.28
2022-12-03T15:23:02.993Z,101183.31
2022-12-03T15:25:29.754Z,101187.78
2022-12-03T15:27:59.110Z,101183.56
2022-12-03T15:30:25.696Z,101180.16
2022-12-03T15:32:52.137Z,101183.56
2022-12-03T15:35:18.736Z,101186.94
2022-12-03T15:37:46.095Z,101186.38
2022-12-03T15:40:12.801Z,101189.63
2022-12-03T15:42:39.524Z,101190.19
2022-12-03T15:45:09.529Z,101183.44
2022-12-03T15:47:38.525Z,101184.47
2022-12-03T15:50:05.454Z,101182.47
2022-12-03T15:52:31.963Z,101183.31
2022-12-03T15:54:58.458Z,101183.03
2022-12-03T15:57:25.143Z,101183.88
2022-12-03T15:59:52.079Z,101186.53
2022-12-03T16:02:19.081Z,101191.06
2022-12-03T16:04:45.675Z,101193.91
2022-12-03T16:07:12.450Z,101188.81
2022-12-03T16:09:39.153Z,101194.69
2022-12-03T16:12:05.868Z,101183.03
2022-12-03T16:14:32.495Z,101193.03
2022-12-03T16:17:00.146Z,101186.13
2022-12-03T16:19:27.005Z,101195.56
2022-12-03T16:21:53.617Z,101197.38
2022-12-03T16:24:20.331Z,101200.19
2022-12-03T16:26:47.000Z,101201.19
2022-12-03T16:29:13.538Z,101201.47
2022-12-03T16:31:40.112Z,101195.69
2022-12-03T16:34:06.833Z,101197.38
2022-12-03T16:36:33.312Z,101197.38
2022-12-03T16:39:02.301Z,101195.69
2022-12-03T16:41:28.966Z,101193.75
2022-12-03T16:43:55.545Z,101188.94
2022-12-03T16:46:26.266Z,101181.91
2022-12-03T16:48:55.321Z,101194.28
2022-12-03T16:51:22.244Z,101194.97
2022-12-03T16:53:48.880Z,101190.88
2022-12-03T16:56:15.553Z,101185.50
2022-12-03T16:58:42.134Z,101184.97
2022-12-03T17:01:09.110Z,101195.09
2022-12-03T17:03:35.879Z,101185.25
2022-12-03T17:06:02.724Z,101177.81
2022-12-03T17:08:29.565Z,101183.88
2022-12-03T17:10:56.312Z,101183.84
2022-12-03T17:13:25.853Z,101178.75
2022-12-03T17:15:52.488Z,101179.03
2022-12-03T17:18:19.068Z,101180.06
2022-12-03T17:20:45.611Z,101179.50
2022-12-03T17:23:12.193Z,101180.16
2022-12-03T17:25:38.700Z,101179.34
2022-12-03T17:28:05.491Z,101173.13
2022-12-03T17:30:32.112Z,101170.84
2022-12-03T17:32:58.650Z,101167.63
2022-12-03T17:35:25.335Z,101166.03
2022-12-03T17:37:51.812Z,101167.28
2022-12-03T17:40:18.334Z,101165.19
2022-12-03T17:42:45.372Z,101160.13
2022-12-03T17:45:12.596Z,101159.25
2022-12-03T17:47:39.140Z,101160.94
2022-12-03T17:50:06.080Z,101156.19
2022-12-03T17:52:32.827Z,101158.84
2022-12-03T17:55:24.162Z,101155.06
2022-12-03T17:57:46.115Z,101151.72
2022-12-03T18:00:12.845Z,101153.94
2022-12-03T18:02:39.390Z,101161.25
2022-12-03T18:05:06.426Z,101154.19
2022-12-03T18:07:33.022Z,101158.19
2022-12-03T18:09:59.663Z,101156.81
2022-12-03T18:12:27.433Z,101147.22
2022-12-03T18:14:53.995Z,101152.84
2022-12-03T18:17:20.629Z,101144.63
2022-12-03T18:19:47.238Z,101142.66
2022-12-03T18:22:14.548Z,101145.91
2022-12-03T18:24:41.153Z,101150.56
2022-12-03T18:27:07.967Z,101145.75
2022-12-03T18:29:34.471Z,101146.72
2022-12-03T18:32:01.236Z,101139.81
2022-12-03T18:34:27.986Z,101147.78
2022-12-03T18:36:54.569Z,101138.38
2022-12-03T18:39:26.335Z,101143.72
2022-12-03T18:41:53.627Z,101128.34
2022-12-03T18:44:20.608Z,101136.38
2022-12-03T18:46:55.040Z,101137.34
2022-12-03T18:49:22.316Z,101138.25
2022-12-03T18:51:52.124Z,101125.13
2022-12-03T18:54:22.628Z,101131.09
2022-12-03T18:56:49.402Z,101125.13
2022-12-03T18:59:16.016Z,101125.72
2022-12-03T19:01:42.682Z,101123.44
2022-12-03T19:04:09.831Z,101119.25
2022-12-03T19:06:36.482Z,101124.75
2022-12-03T19:09:06.102Z,101121.66
2022-12-03T19:11:34.126Z,101124.47
2022-12-03T19:14:00.793Z,101128.53
2022-12-03T19:16:27.391Z,101133.44
2022-12-03T19:18:54.835Z,101129.91
2022-12-03T19:21:21.622Z,101127.38
2022-12-03T19:24:22.202Z,101131.75
2022-12-03T19:26:35.186Z,101137.81
2022-12-03T19:29:01.872Z,101136.22
2022-12-03T19:31:30.703Z,101132.47
2022-12-03T19:33:57.318Z,101134.41
2022-12-03T19:36:28.152Z,101137.56
2022-12-03T19:38:58.125Z,101132.91
2022-12-03T19:41:27.427Z,101137.19
2022-12-03T19:43:55.161Z,101131.44
2022-12-03T19:46:22.757Z,101140.34
2022-12-03T19:48:49.376Z,101137.56
2022-12-03T19:51:34.049Z,101129.53
2022-12-03T19:54:01.310Z,101124.31
2022-12-03T19:56:30.512Z,101132.75
2022-12-03T19:58:59.566Z,101129.34
2022-12-03T20:02:31.403Z,101136.66
2022-12-03T20:04:58.148Z,101134.16
2022-12-03T20:07:24.600Z,101131.22
2022-12-03T20:09:51.765Z,101130.44
2022-12-03T20:12:18.466Z,101128.63
2022-12-03T20:14:45.399Z,101133.53
2022-12-03T20:17:12.069Z,101133.00
2022-12-03T20:19:38.783Z,101131.59
2022-12-03T20:22:05.343Z,101132.78
2022-12-03T20:24:31.860Z,101129.44
2022-12-03T20:26:58.418Z,101133.66
2022-12-03T20:29:24.974Z,101131.31
2022-12-03T20:31:51.686Z,101127.38
2022-12-03T20:34:18.286Z,101119.63
2022-12-03T20:36:45.523Z,101126.50
2022-12-03T20:39:12.106Z,101124.25
2022-12-03T20:41:38.657Z,101120.19
2022-12-03T20:44:07.305Z,101123.97
2022-12-03T20:46:36.136Z,101123.41
2022-12-03T20:49:02.968Z,101117.34
2022-12-03T20:51:30.341Z,101117.22
2022-12-03T20:53:57.392Z,101115.91
2022-12-03T20:56:26.211Z,101112.66
2022-12-03T20:58:53.704Z,101116.31
2022-12-03T21:01:21.502Z,101113.25
2022-12-03T21:03:48.620Z,101110.63
2022-12-03T23:18:25.621Z,101053.75
2022-12-03T23:20:53.541Z,101054.34
2022-12-03T23:23:20.531Z,101054.94
2022-12-03T23:25:57.522Z,101056.63
2022-12-03T23:28:24.493Z,101047.31
2022-12-03T23:30:51.981Z,101050.72
2022-12-03T23:33:18.512Z,101058.53
2022-12-03T23:35:45.073Z,101063.09
2022-12-03T23:38:11.545Z,101059.69
2022-12-03T23:40:37.939Z,101061.69
2022-12-03T23:43:04.450Z,101060.03
2022-12-03T23:45:32.297Z,101057.16
2022-12-03T23:47:58.714Z,101062.19
2022-12-03T23:50:25.352Z,101055.16
2022-12-03T23:52:52.697Z,101057.97
2022-12-03T23:55:19.470Z,101056.59
2022-12-03T23:57:45.972Z,101055.19
